Thursday, August 25, 2016
15:03 UTC
  |  Log In   |  Register Free
Airport Search:

Madison Municipal Airport
(KIMS)

Madison Municipal Airport Diagram
No Airport Diagram Available

FAA data valid effective Jul 21 2016 - Sep 15 2016 (unless otherwise noted).

 
 
 
 
 
 
 
 
 
 
 
 
 
 
Current Aviation Weather for KIMS

Weather Summary


Current weather conditions are not available for IMS - The nearest NOAA weather station is at LOU, (33.3 nm SW from IMS)

The most recent METAR observation for IMS was updated at: 12:53 UTC
METAR for IMS is not available. Closest METAR is for
METAR

METAR KIMS 251451Z 24005KT 10SM SCT014 OVC023 27/23 A3013 RMK AO1

METAR KIMS 251431Z 24007KT 10SM OVC023 27/23 A3012 RMK AO1

METAR KIMS 251411Z 24005KT 10SM OVC023 27/23 A3012 RMK AO1

METAR KIMS 251351Z 22004KT 10SM OVC023 26/23 A3012 RMK AO1

METAR KIMS 251331Z 23005KT 10SM SCT023 26/23 A3013 RMK AO1

METAR KIMS 251311Z 23006KT 10SM CLR 26/23 A3012 RMK AO1

METAR KIMS 251251Z 20006KT 10SM CLR 25/23 A3012 RMK AO1

METAR KIMS 251231Z 20005KT 10SM CLR 25/23 A3012 RMK AO1

METAR KIMS 251211Z 19004KT 10SM CLR 24/22 A3012 RMK AO1

METAR KLOU 251453Z 26008KT 10SM CLR 30/23 A3011 RMK AO2 SLP189 T03000228 58000

TAF for IMS is not available.
TAF
Sorry we do not have any TAF information for IMS
GlobalAir.com is loading additional information.
 Current Weather at LOU
84.0 F° (28.9 C°)

West winds at 8.1 mph
Pressure:
30.11 in
Humidity:
70%
Wind:
West at 8.1 mph
Dew Point:
73.0 F° (22.8 C°)
Visibility:
10.00 mi
IMS NOAA Radar




Find All Airport Services Find A Hotel Find A Rental Car Find A Golf Course Find A Restaurant $100 Hamburger



Airport Weather Forecast for KIMS

Translated METAR for KIMS (1451 UTC)
METAR:
KIMS 251451Z AUTO Madison Municipal, Madison, IN (KIMS). Aug 25, 1451Z, Automated. Wind from 240° at 5 knots, 10 statute miles visibility, Scattered Clouds at 1,400 feet, Ceiling is Overcast at 2,300 feet, Temperature 27°C, Dewpoint 23°C, Altimeter is 30.13. Remarks: automated station without precipitation discriminator
Conditions at:
KIMS (Madison Muni, IN) observed 1451 UTC 25 August 2016
Temperature:
79.0 F° (26.0 C°)
Dewpoint:
not reported - refer to area weather report
Pressure:
30.12 Hg
Winds:
not reported
Visibility:
10.00
Ceiling:
at least 12,000 feet AGL
Clouds:
not reported - refer to area weather report
Remarks:
site is un-manned

Translated TAF for TAF for IMS is not available. Refer to local area forecast.
FBO's on the Field
FBO Company Facility Photos Services Transportation Aviation Fuel Prices: Prices include tax
Catering Weather Repair Courtesy Rental Type 100LL JetA JetA+ MOGAS 8087
 
City of Madison

Currently rated 5 by 1 person
FS:Shell
Last Updated: Aug-04
Login to update fuel prices
SS:
Contact City of MadisonMore FBO Information
 
Add another FBO Facility Photos Catering Weather Repair Courtesy Rental Type 100LL JetA JetA+ MOGAS 8087
Services Transportation Aviation Fuel Prices: Prices include tax


model-print
model-print
model-print
model-print